createdAt,value
2023-08-13T00:00:57.929Z,80.65
2023-08-13T00:03:25.595Z,83.75
2023-08-13T00:05:53.251Z,62.78
2023-08-13T00:08:20.797Z,57.28
2023-08-13T00:10:48.372Z,59.15
2023-08-13T00:13:17.337Z,68.50
2023-08-13T00:15:44.892Z,79.38
2023-08-13T00:18:12.599Z,81.90
2023-08-13T00:20:40.167Z,86.65
2023-08-13T00:23:07.828Z,80.70
2023-08-13T00:25:35.389Z,94.78
2023-08-13T00:28:02.945Z,80.72
2023-08-13T00:30:31.830Z,96.38
2023-08-13T00:32:59.419Z,73.97
2023-08-13T00:35:27.012Z,84.63
2023-08-13T00:37:54.605Z,85.50
2023-08-13T00:40:22.159Z,76.07
2023-08-13T00:42:49.737Z,88.38
2023-08-13T00:45:17.417Z,81.22
2023-08-13T00:47:46.647Z,77.32
2023-08-13T00:50:14.427Z,67.30
2023-08-13T00:52:42.476Z,48.10
2023-08-13T00:55:10.961Z,52.70
2023-08-13T00:57:38.954Z,54.38
2023-08-13T01:00:11.723Z,84.95
2023-08-13T01:02:39.591Z,80.50
2023-08-13T01:05:08.802Z,89.78
2023-08-13T01:07:44.146Z,99.10
2023-08-13T01:10:20.125Z,74.13
2023-08-13T01:12:54.161Z,75.25
2023-08-13T01:15:28.435Z,95.15
2023-08-13T01:17:58.007Z,102.82
2023-08-13T01:20:31.088Z,106.32
2023-08-13T01:23:00.643Z,89.60
2023-08-13T01:25:28.689Z,93.40
2023-08-13T01:28:01.013Z,95.93
2023-08-13T01:30:34.508Z,97.93
2023-08-13T01:33:04.886Z,57.35
2023-08-13T01:35:34.668Z,65.88
2023-08-13T01:38:04.883Z,63.42
2023-08-13T01:40:32.485Z,53.75
2023-08-13T01:43:00.073Z,71.40
2023-08-13T01:45:27.649Z,47.83
2023-08-13T01:47:55.529Z,54.83
2023-08-13T01:50:23.763Z,348.73
2023-08-13T01:52:51.342Z,78.78
2023-08-13T01:55:20.466Z,253.40
2023-08-13T01:57:48.015Z,85.53
2023-08-13T02:00:15.715Z,95.80
2023-08-13T02:02:43.293Z,97.90
2023-08-13T02:05:11.108Z,93.20
2023-08-13T02:07:38.714Z,83.20
2023-08-13T02:10:06.822Z,72.57
2023-08-13T02:12:35.742Z,76.65
2023-08-13T02:15:03.277Z,68.55
2023-08-13T02:17:30.898Z,270.42
2023-08-13T02:19:58.485Z,67.80
2023-08-13T02:22:26.061Z,56.17
2023-08-13T02:24:53.637Z,83.28
2023-08-13T02:27:21.387Z,67.72
2023-08-13T02:29:50.274Z,52.67
2023-08-13T02:32:17.822Z,57.83
2023-08-13T02:34:46.377Z,49.35
2023-08-13T02:37:14.036Z,44.80
2023-08-13T02:39:41.752Z,42.25
2023-08-13T02:42:09.340Z,47.17
2023-08-13T02:44:36.888Z,41.08
2023-08-13T02:47:06.041Z,41.58
2023-08-13T02:49:33.632Z,48.08
2023-08-13T02:52:01.210Z,41.10
2023-08-13T02:54:28.773Z,67.47
2023-08-13T02:56:56.347Z,81.68
2023-08-13T02:59:23.889Z,80.68
2023-08-13T03:01:51.458Z,73.75
2023-08-13T03:04:20.428Z,81.18
2023-08-13T03:06:47.999Z,77.47
2023-08-13T03:09:21.071Z,74.78
2023-08-13T03:11:48.877Z,72.18
2023-08-13T03:14:16.606Z,79.63
2023-08-13T03:16:44.248Z,60.63
2023-08-13T03:19:11.845Z,176.52
2023-08-13T03:21:40.809Z,210.27
2023-08-13T03:24:08.839Z,81.32
2023-08-13T03:26:36.502Z,91.32
2023-08-13T03:29:04.144Z,87.35
2023-08-13T03:31:31.741Z,100.53
2023-08-13T03:33:59.405Z,85.15
2023-08-13T03:36:26.959Z,48.85
2023-08-13T03:38:55.867Z,52.38
2023-08-13T03:41:23.441Z,383.63
2023-08-13T03:43:50.992Z,112.20
2023-08-13T03:46:18.571Z,90.95
2023-08-13T03:48:46.151Z,50.25
2023-08-13T03:51:13.709Z,56.47
2023-08-13T03:53:41.277Z,43.78
2023-08-13T03:56:10.321Z,46.38
2023-08-13T03:58:39.405Z,43.10
2023-08-13T04:01:08.028Z,49.25
2023-08-13T04:03:36.639Z,48.60
2023-08-13T04:06:04.570Z,49.72
2023-08-13T04:08:35.277Z,63.28
2023-08-13T04:11:02.869Z,52.35
2023-08-13T04:13:31.731Z,50.85
2023-08-13T04:15:59.297Z,71.60
2023-08-13T04:18:26.841Z,95.95
2023-08-13T04:20:54.427Z,145.98
2023-08-13T04:23:22.022Z,72.10
2023-08-13T04:25:49.598Z,45.80
2023-08-13T04:28:17.146Z,42.53
2023-08-13T04:30:46.046Z,40.08
2023-08-13T04:33:13.613Z,77.57
2023-08-13T04:35:41.172Z,52.45
2023-08-13T04:38:08.747Z,26.05
2023-08-13T04:40:36.592Z,38.85
2023-08-13T04:43:04.180Z,42.13
2023-08-13T04:45:31.788Z,28.77
2023-08-13T04:48:00.711Z,23.25
2023-08-13T04:50:28.497Z,19.45
2023-08-13T04:52:56.085Z,16.42
2023-08-13T04:55:23.678Z,18.70
2023-08-13T04:57:51.256Z,28.38
2023-08-13T05:00:18.972Z,39.83
2023-08-13T05:02:46.566Z,74.28
2023-08-13T05:05:15.643Z,195.15
2023-08-13T05:07:43.249Z,88.00
2023-08-13T05:10:11.243Z,60.75
2023-08-13T05:12:38.802Z,15.68
2023-08-13T05:15:07.650Z,16.17
2023-08-13T05:17:36.594Z,13.05
2023-08-13T05:20:05.548Z,12.85
2023-08-13T05:22:34.520Z,10.70
2023-08-13T05:25:02.067Z,10.50
2023-08-13T05:27:29.679Z,9.77
2023-08-13T05:29:57.321Z,8.73
2023-08-13T05:32:25.757Z,12.43
2023-08-13T05:34:53.439Z,9.60
2023-08-13T05:37:21.177Z,10.60
2023-08-13T05:39:50.098Z,8.57
2023-08-13T05:42:17.644Z,8.60
2023-08-13T05:44:45.278Z,10.40
2023-08-13T05:47:14.995Z,17.85
2023-08-13T05:49:42.699Z,21.73
2023-08-13T05:52:10.270Z,23.17
2023-08-13T05:54:37.863Z,32.10
2023-08-13T05:57:06.932Z,26.25
2023-08-13T05:59:34.531Z,19.80
2023-08-13T06:02:02.081Z,16.25
2023-08-13T06:04:29.635Z,14.38
2023-08-13T06:06:57.166Z,24.52
2023-08-13T06:09:24.836Z,18.92
2023-08-13T06:11:52.359Z,20.30
2023-08-13T06:14:21.260Z,11.55
2023-08-13T06:16:52.670Z,8.55
2023-08-13T06:19:25.359Z,6.18
2023-08-13T06:21:52.920Z,5.85
2023-08-13T06:24:20.438Z,6.93
2023-08-13T06:26:47.978Z,11.82
2023-08-13T06:29:15.506Z,9.38
2023-08-13T06:31:44.455Z,10.50
2023-08-13T06:34:12.474Z,11.80
2023-08-13T06:36:40.370Z,11.85
2023-08-13T06:39:07.988Z,9.93
2023-08-13T06:41:35.504Z,9.05
2023-08-13T06:44:03.105Z,10.02
2023-08-13T06:46:30.827Z,10.70
2023-08-13T06:48:59.770Z,6.85
2023-08-13T06:51:27.318Z,7.00
2023-08-13T06:53:54.880Z,8.38
2023-08-13T06:56:22.511Z,8.30
2023-08-13T06:58:50.036Z,7.00
2023-08-13T07:01:17.633Z,7.80
2023-08-13T07:03:45.688Z,9.55
2023-08-13T07:06:14.685Z,7.75
2023-08-13T07:08:42.375Z,9.02
2023-08-13T07:11:09.923Z,12.13
2023-08-13T07:13:37.466Z,17.48
2023-08-13T07:16:05.468Z,30.42
2023-08-13T07:18:33.020Z,38.58
2023-08-13T07:21:00.560Z,41.20
2023-08-13T07:23:29.965Z,38.28
2023-08-13T07:25:57.914Z,22.65
2023-08-13T07:28:25.567Z,17.58
2023-08-13T07:30:53.121Z,10.27
2023-08-13T07:33:20.664Z,6.97
2023-08-13T07:35:48.176Z,6.65
2023-08-13T07:38:15.751Z,6.38
2023-08-13T07:40:44.642Z,7.65
2023-08-13T07:43:12.210Z,6.13
2023-08-13T07:45:39.815Z,6.43
2023-08-13T07:48:08.414Z,6.05
2023-08-13T07:50:35.990Z,7.47
2023-08-13T07:53:03.567Z,6.25
2023-08-13T07:55:31.337Z,8.32
2023-08-13T07:58:00.204Z,13.38
2023-08-13T08:00:28.419Z,21.55
2023-08-13T08:02:56.095Z,24.27
2023-08-13T08:05:23.846Z,24.23
2023-08-13T08:07:51.430Z,18.35
2023-08-13T08:10:19.153Z,16.90
2023-08-13T08:12:46.745Z,16.13
2023-08-13T08:15:15.672Z,13.15
2023-08-13T08:17:43.239Z,10.43
2023-08-13T08:20:12.283Z,7.55
2023-08-13T08:22:39.826Z,6.15
2023-08-13T08:25:11.754Z,6.60
2023-08-13T08:27:39.780Z,5.97
2023-08-13T08:30:08.753Z,7.05
2023-08-13T08:32:38.036Z,7.20
2023-08-13T08:35:06.739Z,6.88
2023-08-13T08:37:34.736Z,7.22
2023-08-13T08:40:02.495Z,8.07
2023-08-13T08:42:32.186Z,7.35
2023-08-13T08:45:00.756Z,7.25
2023-08-13T08:47:28.775Z,6.03
2023-08-13T08:49:57.732Z,6.65
2023-08-13T08:52:25.280Z,6.93
2023-08-13T08:54:53.726Z,7.88
2023-08-13T08:57:21.262Z,7.88
2023-08-13T08:59:48.856Z,7.97
2023-08-13T09:02:16.547Z,7.30
2023-08-13T09:04:44.746Z,8.25
2023-08-13T09:07:13.668Z,7.10
2023-08-13T09:09:44.401Z,7.47
2023-08-13T09:12:12.202Z,8.73
2023-08-13T09:14:39.787Z,7.15
2023-08-13T09:17:07.352Z,7.45
2023-08-13T09:19:34.968Z,7.43
2023-08-13T09:22:04.248Z,6.93
2023-08-13T09:24:34.894Z,6.78
2023-08-13T09:27:04.078Z,6.53
2023-08-13T09:29:32.273Z,8.68
2023-08-13T09:32:00.517Z,16.13
2023-08-13T09:34:28.527Z,21.05
2023-08-13T09:36:56.305Z,22.80
2023-08-13T09:39:24.309Z,20.75
2023-08-13T09:41:53.843Z,25.08
2023-08-13T09:44:25.330Z,20.63
2023-08-13T09:46:55.570Z,13.55
2023-08-13T09:49:23.865Z,12.45
2023-08-13T09:51:54.301Z,9.10
2023-08-13T09:54:30.451Z,6.72
2023-08-13T09:57:04.733Z,5.13
2023-08-13T09:59:35.383Z,6.32
2023-08-13T10:02:06.628Z,7.13
2023-08-13T10:04:35.476Z,5.85
2023-08-13T10:07:05.491Z,5.38
2023-08-13T10:09:34.309Z,5.57
2023-08-13T10:12:04.026Z,8.70
2023-08-13T10:14:32.725Z,8.23
2023-08-13T10:17:02.510Z,9.65
2023-08-13T10:19:31.146Z,9.35
2023-08-13T10:21:59.440Z,13.20
2023-08-13T10:24:30.845Z,15.27
2023-08-13T10:27:00.238Z,15.57
2023-08-13T10:29:37.372Z,16.55
2023-08-13T10:32:13.651Z,16.55
2023-08-13T10:34:43.163Z,17.10
2023-08-13T10:37:16.944Z,18.08
2023-08-13T10:39:46.055Z,17.77
2023-08-13T10:42:48.647Z,17.50
2023-08-13T10:45:18.632Z,9.63
2023-08-13T10:47:48.119Z,9.05
2023-08-13T10:50:22.106Z,7.95
2023-08-13T10:52:51.642Z,7.95
2023-08-13T10:55:20.634Z,9.88
2023-08-13T10:57:52.099Z,13.07
2023-08-13T11:00:23.511Z,15.05
2023-08-13T11:02:54.953Z,11.32
2023-08-13T11:05:23.887Z,8.95
2023-08-13T11:07:53.064Z,8.35
2023-08-13T11:10:22.298Z,7.18
2023-08-13T11:12:51.242Z,7.57
2023-08-13T11:15:21.553Z,8.25
2023-08-13T11:17:49.290Z,8.68
2023-08-13T11:20:19.569Z,10.13
2023-08-13T11:22:47.523Z,10.07
2023-08-13T11:25:15.750Z,7.72
2023-08-13T11:27:43.726Z,7.18
2023-08-13T11:30:12.324Z,10.25
2023-08-13T11:32:41.486Z,12.25
2023-08-13T11:35:10.979Z,9.90
2023-08-13T11:37:39.114Z,16.15
2023-08-13T11:40:10.859Z,4.70
2023-08-13T11:42:38.713Z,5.65
2023-08-13T11:45:12.873Z,6.65
2023-08-13T11:47:41.782Z,5.43
2023-08-13T11:50:20.361Z,5.63
2023-08-13T11:53:03.828Z,3.53
2023-08-13T11:55:31.603Z,3.92
2023-08-13T11:58:00.046Z,3.30
2023-08-13T12:00:28.553Z,2.97
2023-08-13T12:02:58.236Z,3.70
2023-08-13T12:05:27.996Z,2.92
2023-08-13T12:07:57.442Z,3.10
2023-08-13T12:10:25.306Z,3.15
2023-08-13T12:12:52.862Z,5.10
2023-08-13T12:15:23.279Z,3.28
2023-08-13T12:17:50.842Z,3.35
2023-08-13T12:20:19.925Z,3.97
2023-08-13T12:22:47.903Z,3.08
2023-08-13T12:25:15.489Z,3.53
2023-08-13T12:27:44.191Z,2.90
2023-08-13T12:30:12.956Z,2.65
2023-08-13T12:32:40.597Z,3.55
2023-08-13T12:35:10.134Z,2.70
2023-08-13T12:37:39.030Z,2.50
2023-08-13T12:40:10.142Z,2.65
2023-08-13T12:42:37.798Z,2.53
2023-08-13T12:45:07.051Z,3.17
2023-08-13T12:47:35.173Z,2.40
2023-08-13T12:50:02.953Z,2.35
2023-08-13T12:52:31.577Z,2.97
2023-08-13T12:55:00.547Z,2.60
2023-08-13T12:57:28.173Z,3.58
2023-08-13T12:59:55.917Z,4.03
2023-08-13T13:02:27.107Z,4.88
2023-08-13T13:04:56.594Z,4.90
2023-08-13T13:07:24.815Z,6.50
2023-08-13T13:09:52.396Z,4.68
2023-08-13T13:12:21.668Z,5.15
2023-08-13T13:14:49.225Z,5.32
2023-08-13T13:17:17.806Z,5.10
2023-08-13T13:19:45.374Z,5.13
2023-08-13T13:22:13.406Z,5.45
2023-08-13T13:24:41.227Z,5.50
2023-08-13T13:27:08.769Z,6.50
2023-08-13T13:29:37.653Z,8.30
2023-08-13T13:32:05.781Z,7.80
2023-08-13T13:34:33.360Z,8.55
2023-08-13T13:37:00.936Z,7.93
2023-08-13T13:39:28.475Z,8.18
2023-08-13T13:41:56.020Z,9.27
2023-08-13T13:44:24.124Z,10.05
2023-08-13T13:46:53.272Z,10.20
2023-08-13T13:49:20.811Z,10.75
2023-08-13T13:51:48.544Z,10.25
2023-08-13T13:54:16.082Z,10.93
2023-08-13T13:56:43.634Z,11.73
2023-08-13T13:59:11.172Z,12.55
2023-08-13T14:01:40.957Z,12.00
2023-08-13T14:04:12.272Z,13.05
2023-08-13T14:06:40.055Z,13.20
2023-08-13T14:09:07.851Z,13.43
2023-08-13T14:11:35.430Z,15.70
2023-08-13T14:14:03.407Z,16.48
2023-08-13T14:16:30.955Z,14.18
2023-08-13T14:18:58.555Z,15.43
2023-08-13T14:21:27.425Z,14.40
2023-08-13T14:23:54.998Z,15.88
2023-08-13T14:26:22.580Z,15.48
2023-08-13T14:28:50.131Z,17.00
2023-08-13T14:31:17.769Z,13.75
2023-08-13T14:33:45.334Z,15.57
2023-08-13T14:36:12.896Z,12.07
2023-08-13T14:38:41.791Z,10.20
2023-08-13T14:41:09.421Z,8.13
2023-08-13T14:43:36.999Z,7.45
2023-08-13T14:46:04.611Z,6.78
2023-08-13T14:48:32.223Z,5.28
2023-08-13T14:50:59.782Z,4.93
2023-08-13T14:53:27.339Z,4.53
2023-08-13T14:55:56.261Z,5.15
2023-08-13T14:58:24.902Z,4.15
2023-08-13T15:00:52.560Z,5.20
2023-08-13T15:03:20.181Z,4.82
2023-08-13T15:05:47.767Z,6.47
2023-08-13T15:08:15.316Z,5.43
2023-08-13T15:10:42.863Z,5.80
2023-08-13T15:13:11.747Z,4.50
2023-08-13T15:15:39.881Z,4.18
2023-08-13T15:18:08.869Z,4.90
2023-08-13T15:20:36.856Z,5.63
2023-08-13T15:23:04.808Z,8.02
2023-08-13T15:25:44.981Z,12.50
2023-08-13T15:28:21.462Z,11.57
2023-08-13T15:30:49.076Z,10.05
2023-08-13T15:33:16.646Z,8.15
2023-08-13T15:35:52.128Z,9.65
2023-08-13T15:38:22.757Z,8.57
2023-08-13T15:40:50.865Z,10.18
2023-08-13T15:43:18.533Z,9.45
2023-08-13T15:45:48.017Z,9.35
2023-08-13T15:48:15.686Z,7.20
2023-08-13T15:50:43.263Z,10.77
2023-08-13T15:53:10.803Z,10.63
2023-08-13T15:55:39.036Z,8.73
2023-08-13T15:58:07.956Z,8.80
2023-08-13T16:00:36.133Z,8.82
2023-08-13T16:03:06.239Z,7.22
2023-08-13T16:05:34.286Z,8.32
2023-08-13T16:08:01.902Z,8.70
2023-08-13T16:10:30.345Z,8.48
2023-08-13T16:12:57.951Z,8.02
2023-08-13T16:15:25.812Z,7.82
2023-08-13T16:17:53.419Z,7.78
2023-08-13T16:20:22.642Z,7.63
2023-08-13T16:22:50.223Z,7.32
2023-08-13T16:25:18.933Z,9.40
2023-08-13T16:27:46.502Z,13.35
2023-08-13T16:30:14.775Z,11.35
2023-08-13T16:32:44.210Z,12.82
2023-08-13T16:35:12.425Z,12.30
2023-08-13T16:37:41.312Z,9.65
2023-08-13T16:40:10.402Z,12.43
2023-08-13T16:42:51.196Z,11.15
2023-08-13T16:45:26.277Z,11.32
2023-08-13T16:47:55.751Z,10.48
2023-08-13T16:50:23.591Z,10.63
2023-08-13T16:52:52.754Z,10.23
2023-08-13T16:55:20.522Z,10.25
2023-08-13T16:57:48.106Z,10.13
2023-08-13T17:00:15.928Z,10.23
2023-08-13T17:02:44.736Z,11.18
2023-08-13T17:05:13.167Z,10.75
2023-08-13T17:07:40.961Z,10.68
2023-08-13T17:10:10.685Z,9.77
2023-08-13T17:12:38.417Z,11.52
2023-08-13T17:15:21.124Z,10.75
2023-08-13T17:17:49.707Z,11.93
2023-08-13T17:20:20.913Z,10.45
2023-08-13T17:22:49.508Z,9.30
2023-08-13T17:25:18.369Z,10.75
2023-08-13T17:27:46.668Z,9.00
2023-08-13T17:30:14.881Z,8.48
2023-08-13T17:32:42.419Z,9.00
2023-08-13T17:35:10.665Z,10.52
2023-08-13T17:37:38.231Z,8.90
2023-08-13T17:40:06.859Z,10.35
2023-08-13T17:42:35.759Z,7.97
2023-08-13T17:45:03.743Z,7.95
2023-08-13T17:47:31.544Z,7.55
2023-08-13T17:49:59.226Z,6.90
2023-08-13T17:52:29.230Z,7.30
2023-08-13T17:54:56.954Z,9.07
2023-08-13T17:57:24.545Z,7.55
2023-08-13T17:59:53.735Z,7.53
2023-08-13T18:02:21.364Z,7.60
2023-08-13T18:04:48.974Z,6.50
2023-08-13T18:07:16.941Z,7.75
2023-08-13T18:09:44.809Z,8.27
2023-08-13T18:12:12.387Z,6.70
2023-08-13T18:14:39.984Z,7.40
2023-08-13T18:17:09.267Z,8.40
2023-08-13T18:19:36.849Z,11.75
2023-08-13T18:22:04.441Z,8.93
2023-08-13T18:24:32.055Z,7.32
2023-08-13T18:26:59.592Z,7.85
2023-08-13T18:29:27.194Z,11.00
2023-08-13T18:31:54.802Z,17.17
2023-08-13T18:34:23.782Z,21.20
2023-08-13T18:36:51.348Z,21.77
2023-08-13T18:39:18.915Z,19.10
2023-08-13T18:41:46.527Z,19.35
2023-08-13T18:44:14.101Z,18.00
2023-08-13T18:46:43.865Z,18.05
2023-08-13T18:49:11.432Z,15.25
2023-08-13T18:51:40.318Z,16.55
2023-08-13T18:54:07.936Z,13.98
2023-08-13T18:56:35.497Z,12.73
2023-08-13T18:59:03.102Z,13.07
2023-08-13T19:01:30.668Z,12.13
2023-08-13T19:03:58.516Z,13.85
2023-08-13T19:06:26.096Z,12.27
2023-08-13T19:08:54.995Z,11.40
2023-08-13T19:11:22.598Z,12.27
2023-08-13T19:13:50.365Z,10.90
2023-08-13T19:16:18.003Z,9.25
2023-08-13T19:18:45.603Z,11.00
2023-08-13T19:21:13.174Z,8.55
2023-08-13T19:23:40.847Z,9.32
2023-08-13T19:26:09.748Z,10.48
2023-08-13T19:28:37.308Z,12.15
2023-08-13T19:31:04.928Z,11.35
2023-08-13T19:33:32.523Z,11.10
2023-08-13T19:36:00.080Z,9.95
2023-08-13T19:38:27.627Z,12.15
2023-08-13T19:40:56.259Z,12.07
2023-08-13T19:43:25.392Z,17.75
2023-08-13T19:45:52.997Z,16.80
2023-08-13T19:48:23.958Z,21.10
2023-08-13T19:50:51.857Z,28.65
2023-08-13T19:53:19.470Z,18.92
2023-08-13T19:55:49.646Z,20.17
2023-08-13T19:58:18.555Z,31.63
2023-08-13T20:00:48.438Z,43.90
2023-08-13T20:03:17.557Z,38.58
2023-08-13T20:05:45.115Z,20.63
2023-08-13T20:08:12.706Z,18.90
2023-08-13T20:10:40.595Z,18.75
2023-08-13T20:13:08.163Z,17.15
2023-08-13T20:15:36.135Z,22.55
2023-08-13T20:18:05.709Z,24.65
2023-08-13T20:20:33.281Z,29.35
2023-08-13T20:23:03.699Z,27.35
2023-08-13T20:25:31.325Z,26.98
2023-08-13T20:27:58.863Z,29.65
2023-08-13T20:30:26.410Z,29.98
2023-08-13T20:32:53.965Z,27.60
2023-08-13T20:35:22.973Z,21.33
2023-08-13T20:37:50.488Z,21.48
2023-08-13T20:40:18.204Z,21.42
2023-08-13T20:42:46.114Z,22.38
2023-08-13T20:45:13.710Z,28.17
2023-08-13T20:47:41.449Z,30.05
2023-08-13T20:50:17.314Z,38.88
2023-08-13T20:52:47.163Z,46.00
2023-08-13T20:55:14.779Z,46.95
2023-08-13T20:57:42.729Z,49.80
2023-08-13T21:00:11.667Z,47.22
2023-08-13T21:02:39.305Z,54.28
2023-08-13T21:05:07.678Z,41.38
2023-08-13T21:07:35.233Z,33.85
2023-08-13T21:10:04.392Z,62.65
2023-08-13T21:12:31.940Z,55.03
2023-08-13T21:14:59.728Z,60.60
2023-08-13T21:17:27.286Z,45.83
2023-08-13T21:19:55.040Z,64.80
2023-08-13T21:22:22.611Z,63.88
2023-08-13T21:24:50.199Z,64.25
2023-08-13T21:27:19.104Z,60.72
2023-08-13T21:29:46.685Z,65.57
2023-08-13T21:32:14.261Z,68.68
2023-08-13T21:34:41.796Z,64.80
2023-08-13T21:37:09.429Z,38.63
2023-08-13T21:39:37.214Z,40.53
2023-08-13T21:42:04.895Z,22.02
2023-08-13T21:44:33.789Z,25.35
2023-08-13T21:47:01.317Z,30.45
2023-08-13T21:49:28.857Z,40.22
2023-08-13T21:51:56.393Z,63.55
2023-08-13T21:54:23.916Z,66.13
2023-08-13T21:56:51.808Z,63.78
2023-08-13T21:59:19.374Z,44.50
2023-08-13T22:01:48.304Z,29.25
2023-08-13T22:04:15.892Z,35.13
2023-08-13T22:06:43.494Z,43.35
2023-08-13T22:09:11.601Z,59.85
2023-08-13T22:11:39.483Z,60.00
2023-08-13T22:14:07.871Z,61.53
2023-08-13T22:16:36.751Z,62.60
2023-08-13T22:19:06.772Z,60.72
2023-08-13T22:21:34.486Z,66.60
2023-08-13T22:24:02.080Z,66.30
2023-08-13T22:26:29.645Z,71.07
2023-08-13T22:28:57.257Z,71.40
2023-08-13T22:31:25.116Z,66.22
2023-08-13T22:33:52.705Z,65.50
2023-08-13T22:36:21.715Z,67.72
2023-08-13T22:38:49.361Z,70.07
2023-08-13T22:41:16.910Z,65.30
2023-08-13T22:43:44.421Z,59.60
2023-08-13T22:46:11.995Z,61.13
2023-08-13T22:48:39.568Z,55.58
2023-08-13T22:51:07.182Z,57.92
2023-08-13T22:53:36.081Z,63.83
2023-08-13T22:56:03.673Z,63.80
2023-08-13T22:58:32.193Z,64.38
2023-08-13T23:01:00.035Z,64.72
2023-08-13T23:03:28.851Z,55.08
2023-08-13T23:05:56.480Z,61.63
2023-08-13T23:08:25.212Z,56.65
2023-08-13T23:10:54.789Z,61.10
2023-08-13T23:13:22.394Z,54.97
2023-08-13T23:15:49.969Z,35.75
2023-08-13T23:18:17.589Z,24.13
2023-08-13T23:20:45.214Z,19.20
2023-08-13T23:23:12.792Z,18.63
2023-08-13T23:25:40.324Z,17.42
2023-08-13T23:28:09.308Z,16.30
2023-08-13T23:30:36.888Z,16.95
2023-08-13T23:33:04.890Z,19.73
2023-08-13T23:35:32.480Z,17.80
2023-08-13T23:38:00.120Z,19.63
2023-08-13T23:40:27.653Z,16.42
2023-08-13T23:42:55.207Z,14.57
2023-08-13T23:45:24.297Z,20.02
2023-08-13T23:47:51.929Z,16.00
2023-08-13T23:50:19.570Z,35.20
2023-08-13T23:52:47.119Z,70.05
2023-08-13T23:55:14.641Z,190.07
2023-08-13T23:57:42.189Z,132.50
